sensor_id;sensor_type;location;lat;lon;timestamp;P1;durP1;ratioP1;P2;durP2;ratioP2
21886;SDS011;11108;49.988;8.182;2023-01-23T00:01:48;6.87;;;5.43;;
21886;SDS011;11108;49.988;8.182;2023-01-23T00:04:13;6.63;;;4.90;;
21886;SDS011;11108;49.988;8.182;2023-01-23T00:06:39;6.13;;;5.27;;
21886;SDS011;11108;49.988;8.182;2023-01-23T00:09:05;6.67;;;5.60;;
21886;SDS011;11108;49.988;8.182;2023-01-23T00:11:30;5.63;;;5.13;;
21886;SDS011;11108;49.988;8.182;2023-01-23T00:13:56;6.10;;;5.03;;
21886;SDS011;11108;49.988;8.182;2023-01-23T00:16:22;6.50;;;4.50;;
21886;SDS011;11108;49.988;8.182;2023-01-23T00:18:48;5.93;;;5.33;;
21886;SDS011;11108;49.988;8.182;2023-01-23T00:21:14;5.73;;;5.03;;
21886;SDS011;11108;49.988;8.182;2023-01-23T00:23:41;5.33;;;4.80;;
21886;SDS011;11108;49.988;8.182;2023-01-23T00:26:07;5.57;;;4.60;;
21886;SDS011;11108;49.988;8.182;2023-01-23T00:28:35;5.87;;;4.90;;
21886;SDS011;11108;49.988;8.182;2023-01-23T00:31:04;6.00;;;4.53;;
21886;SDS011;11108;49.988;8.182;2023-01-23T00:33:29;5.13;;;4.63;;
21886;SDS011;11108;49.988;8.182;2023-01-23T00:35:54;5.60;;;5.10;;
21886;SDS011;11108;49.988;8.182;2023-01-23T00:38:20;5.00;;;4.23;;
21886;SDS011;11108;49.988;8.182;2023-01-23T00:40:46;5.43;;;4.93;;
21886;SDS011;11108;49.988;8.182;2023-01-23T00:43:11;6.03;;;4.70;;
21886;SDS011;11108;49.988;8.182;2023-01-23T00:45:36;5.30;;;4.80;;
21886;SDS011;11108;49.988;8.182;2023-01-23T00:48:02;6.67;;;4.70;;
21886;SDS011;11108;49.988;8.182;2023-01-23T00:50:27;6.57;;;4.57;;
21886;SDS011;11108;49.988;8.182;2023-01-23T00:52:52;5.17;;;4.67;;
21886;SDS011;11108;49.988;8.182;2023-01-23T00:55:17;5.07;;;4.57;;
21886;SDS011;11108;49.988;8.182;2023-01-23T00:57:43;5.70;;;4.40;;
21886;SDS011;11108;49.988;8.182;2023-01-23T01:00:08;4.77;;;4.20;;
21886;SDS011;11108;49.988;8.182;2023-01-23T01:02:33;5.10;;;4.37;;
21886;SDS011;11108;49.988;8.182;2023-01-23T01:04:59;4.30;;;3.90;;
21886;SDS011;11108;49.988;8.182;2023-01-23T01:07:24;5.03;;;4.23;;
21886;SDS011;11108;49.988;8.182;2023-01-23T01:09:49;4.97;;;4.47;;
21886;SDS011;11108;49.988;8.182;2023-01-23T01:12:14;6.47;;;3.87;;
21886;SDS011;11108;49.988;8.182;2023-01-23T01:14:40;4.77;;;4.20;;
21886;SDS011;11108;49.988;8.182;2023-01-23T01:17:05;4.30;;;3.90;;
21886;SDS011;11108;49.988;8.182;2023-01-23T01:19:31;4.10;;;3.80;;
21886;SDS011;11108;49.988;8.182;2023-01-23T01:21:56;4.63;;;3.80;;
21886;SDS011;11108;49.988;8.182;2023-01-23T01:24:21;3.63;;;3.30;;
21886;SDS011;11108;49.988;8.182;2023-01-23T01:26:46;3.80;;;3.50;;
21886;SDS011;11108;49.988;8.182;2023-01-23T01:29:12;3.73;;;3.30;;
21886;SDS011;11108;49.988;8.182;2023-01-23T01:31:37;5.03;;;3.87;;
21886;SDS011;11108;49.988;8.182;2023-01-23T01:34:02;4.07;;;3.77;;
21886;SDS011;11108;49.988;8.182;2023-01-23T01:36:30;4.63;;;3.70;;
21886;SDS011;11108;49.988;8.182;2023-01-23T01:38:55;3.63;;;3.30;;
21886;SDS011;11108;49.988;8.182;2023-01-23T01:41:20;3.93;;;3.57;;
21886;SDS011;11108;49.988;8.182;2023-01-23T01:43:46;3.50;;;3.20;;
21886;SDS011;11108;49.988;8.182;2023-01-23T01:46:24;4.33;;;3.87;;
21886;SDS011;11108;49.988;8.182;2023-01-23T01:51:39;3.77;;;3.47;;
21886;SDS011;11108;49.988;8.182;2023-01-23T01:54:08;3.77;;;3.47;;
21886;SDS011;11108;49.988;8.182;2023-01-23T01:56:36;4.40;;;3.93;;
21886;SDS011;11108;49.988;8.182;2023-01-23T01:59:02;3.63;;;3.33;;
21886;SDS011;11108;49.988;8.182;2023-01-23T02:01:28;3.60;;;3.40;;
21886;SDS011;11108;49.988;8.182;2023-01-23T02:03:53;3.97;;;3.67;;
21886;SDS011;11108;49.988;8.182;2023-01-23T02:06:19;3.97;;;3.67;;
21886;SDS011;11108;49.988;8.182;2023-01-23T02:11:09;3.47;;;3.27;;
21886;SDS011;11108;49.988;8.182;2023-01-23T02:13:36;3.87;;;3.53;;
21886;SDS011;11108;49.988;8.182;2023-01-23T02:16:03;3.77;;;3.30;;
21886;SDS011;11108;49.988;8.182;2023-01-23T02:18:30;3.53;;;3.23;;
21886;SDS011;11108;49.988;8.182;2023-01-23T02:20:57;3.50;;;3.20;;
21886;SDS011;11108;49.988;8.182;2023-01-23T02:26:03;3.97;;;3.30;;
21886;SDS011;11108;49.988;8.182;2023-01-23T02:28:36;3.73;;;3.43;;
21886;SDS011;11108;49.988;8.182;2023-01-23T02:31:01;3.13;;;2.83;;
21886;SDS011;11108;49.988;8.182;2023-01-23T02:35:52;3.30;;;3.10;;
21886;SDS011;11108;49.988;8.182;2023-01-23T02:38:17;2.97;;;2.77;;
21886;SDS011;11108;49.988;8.182;2023-01-23T02:40:43;3.13;;;2.93;;
21886;SDS011;11108;49.988;8.182;2023-01-23T02:43:10;3.83;;;3.27;;
21886;SDS011;11108;49.988;8.182;2023-01-23T02:45:36;4.03;;;3.70;;
21886;SDS011;11108;49.988;8.182;2023-01-23T02:48:01;4.07;;;3.00;;
21886;SDS011;11108;49.988;8.182;2023-01-23T02:50:27;3.10;;;2.90;;
21886;SDS011;11108;49.988;8.182;2023-01-23T02:52:52;3.20;;;2.90;;
21886;SDS011;11108;49.988;8.182;2023-01-23T02:55:19;3.20;;;3.00;;
21886;SDS011;11108;49.988;8.182;2023-01-23T02:57:44;3.37;;;3.07;;
21886;SDS011;11108;49.988;8.182;2023-01-23T03:00:10;3.43;;;3.17;;
21886;SDS011;11108;49.988;8.182;2023-01-23T03:02:43;3.20;;;2.97;;
21886;SDS011;11108;49.988;8.182;2023-01-23T03:05:09;3.13;;;2.83;;
21886;SDS011;11108;49.988;8.182;2023-01-23T03:07:34;3.40;;;3.10;;
21886;SDS011;11108;49.988;8.182;2023-01-23T03:10:00;3.33;;;3.07;;
21886;SDS011;11108;49.988;8.182;2023-01-23T03:12:25;2.97;;;2.77;;
21886;SDS011;11108;49.988;8.182;2023-01-23T03:14:50;2.80;;;2.60;;
21886;SDS011;11108;49.988;8.182;2023-01-23T03:17:18;3.33;;;2.90;;
21886;SDS011;11108;49.988;8.182;2023-01-23T03:19:44;2.93;;;2.80;;
21886;SDS011;11108;49.988;8.182;2023-01-23T03:22:09;2.93;;;2.73;;
21886;SDS011;11108;49.988;8.182;2023-01-23T03:24:34;3.00;;;2.80;;
21886;SDS011;11108;49.988;8.182;2023-01-23T03:26:59;3.00;;;2.80;;
21886;SDS011;11108;49.988;8.182;2023-01-23T03:29:24;4.07;;;3.20;;
21886;SDS011;11108;49.988;8.182;2023-01-23T03:32:10;3.07;;;2.87;;
21886;SDS011;11108;49.988;8.182;2023-01-23T03:34:35;3.20;;;3.00;;
21886;SDS011;11108;49.988;8.182;2023-01-23T03:37:01;2.97;;;2.87;;
21886;SDS011;11108;49.988;8.182;2023-01-23T03:39:27;2.77;;;2.57;;
21886;SDS011;11108;49.988;8.182;2023-01-23T03:42:10;2.83;;;2.50;;
21886;SDS011;11108;49.988;8.182;2023-01-23T03:44:36;3.67;;;3.03;;
21886;SDS011;11108;49.988;8.182;2023-01-23T03:47:01;3.27;;;2.93;;
21886;SDS011;11108;49.988;8.182;2023-01-23T03:49:27;3.00;;;2.80;;
21886;SDS011;11108;49.988;8.182;2023-01-23T03:51:52;3.00;;;2.77;;
21886;SDS011;11108;49.988;8.182;2023-01-23T03:54:17;3.30;;;3.10;;
21886;SDS011;11108;49.988;8.182;2023-01-23T03:56:42;2.90;;;2.70;;
21886;SDS011;11108;49.988;8.182;2023-01-23T03:59:08;3.03;;;2.83;;
21886;SDS011;11108;49.988;8.182;2023-01-23T04:01:33;2.60;;;2.50;;
21886;SDS011;11108;49.988;8.182;2023-01-23T04:03:58;3.10;;;2.77;;
21886;SDS011;11108;49.988;8.182;2023-01-23T04:06:24;2.50;;;2.40;;
21886;SDS011;11108;49.988;8.182;2023-01-23T04:08:49;2.80;;;2.60;;
21886;SDS011;11108;49.988;8.182;2023-01-23T04:11:14;2.77;;;2.67;;
21886;SDS011;11108;49.988;8.182;2023-01-23T04:13:39;2.53;;;2.43;;
21886;SDS011;11108;49.988;8.182;2023-01-23T04:16:05;2.73;;;2.53;;
21886;SDS011;11108;49.988;8.182;2023-01-23T04:18:30;2.80;;;2.67;;
21886;SDS011;11108;49.988;8.182;2023-01-23T04:20:56;2.77;;;2.57;;
21886;SDS011;11108;49.988;8.182;2023-01-23T04:23:21;2.50;;;2.40;;
21886;SDS011;11108;49.988;8.182;2023-01-23T04:25:47;2.70;;;2.50;;
21886;SDS011;11108;49.988;8.182;2023-01-23T04:28:12;2.63;;;2.47;;
21886;SDS011;11108;49.988;8.182;2023-01-23T04:30:38;2.97;;;2.77;;
21886;SDS011;11108;49.988;8.182;2023-01-23T04:33:03;2.60;;;2.50;;
21886;SDS011;11108;49.988;8.182;2023-01-23T04:35:28;2.40;;;2.30;;
21886;SDS011;11108;49.988;8.182;2023-01-23T04:37:53;2.80;;;2.60;;
21886;SDS011;11108;49.988;8.182;2023-01-23T04:40:18;2.43;;;2.33;;
21886;SDS011;11108;49.988;8.182;2023-01-23T04:42:44;2.50;;;2.40;;
21886;SDS011;11108;49.988;8.182;2023-01-23T04:45:09;2.83;;;2.70;;
21886;SDS011;11108;49.988;8.182;2023-01-23T04:47:35;2.17;;;2.07;;
21886;SDS011;11108;49.988;8.182;2023-01-23T04:50:00;2.80;;;2.60;;
21886;SDS011;11108;49.988;8.182;2023-01-23T04:52:26;2.20;;;2.10;;
21886;SDS011;11108;49.988;8.182;2023-01-23T04:54:51;2.40;;;2.20;;
21886;SDS011;11108;49.988;8.182;2023-01-23T04:57:17;2.40;;;2.20;;
21886;SDS011;11108;49.988;8.182;2023-01-23T04:59:42;2.57;;;2.37;;
21886;SDS011;11108;49.988;8.182;2023-01-23T05:02:08;2.40;;;2.30;;
21886;SDS011;11108;49.988;8.182;2023-01-23T05:04:33;2.20;;;2.10;;
21886;SDS011;11108;49.988;8.182;2023-01-23T05:06:58;2.53;;;2.37;;
21886;SDS011;11108;49.988;8.182;2023-01-23T05:09:23;1.97;;;1.87;;
21886;SDS011;11108;49.988;8.182;2023-01-23T05:11:49;2.67;;;2.47;;
21886;SDS011;11108;49.988;8.182;2023-01-23T05:14:14;2.73;;;2.53;;
21886;SDS011;11108;49.988;8.182;2023-01-23T05:16:39;2.40;;;2.30;;
21886;SDS011;11108;49.988;8.182;2023-01-23T05:19:04;2.20;;;2.10;;
21886;SDS011;11108;49.988;8.182;2023-01-23T05:21:29;2.30;;;2.20;;
21886;SDS011;11108;49.988;8.182;2023-01-23T05:23:55;2.43;;;2.33;;
21886;SDS011;11108;49.988;8.182;2023-01-23T05:26:20;2.27;;;2.13;;
21886;SDS011;11108;49.988;8.182;2023-01-23T05:28:45;2.40;;;2.20;;
21886;SDS011;11108;49.988;8.182;2023-01-23T05:31:10;2.60;;;2.40;;
21886;SDS011;11108;49.988;8.182;2023-01-23T05:33:36;2.23;;;2.13;;
21886;SDS011;11108;49.988;8.182;2023-01-23T05:36:01;2.07;;;1.97;;
21886;SDS011;11108;49.988;8.182;2023-01-23T05:38:26;1.93;;;1.83;;
21886;SDS011;11108;49.988;8.182;2023-01-23T05:40:52;2.07;;;1.97;;
21886;SDS011;11108;49.988;8.182;2023-01-23T05:43:17;2.00;;;1.90;;
21886;SDS011;11108;49.988;8.182;2023-01-23T05:45:43;2.27;;;2.07;;
21886;SDS011;11108;49.988;8.182;2023-01-23T05:48:08;1.80;;;1.70;;
21886;SDS011;11108;49.988;8.182;2023-01-23T05:50:33;2.07;;;1.97;;
21886;SDS011;11108;49.988;8.182;2023-01-23T05:52:58;2.10;;;2.00;;
21886;SDS011;11108;49.988;8.182;2023-01-23T05:55:23;1.80;;;1.70;;
21886;SDS011;11108;49.988;8.182;2023-01-23T05:57:49;1.90;;;1.80;;
21886;SDS011;11108;49.988;8.182;2023-01-23T06:00:14;2.17;;;1.97;;
21886;SDS011;11108;49.988;8.182;2023-01-23T06:02:40;2.00;;;1.90;;
21886;SDS011;11108;49.988;8.182;2023-01-23T06:05:05;1.93;;;1.83;;
21886;SDS011;11108;49.988;8.182;2023-01-23T06:07:31;2.20;;;2.10;;
21886;SDS011;11108;49.988;8.182;2023-01-23T06:09:56;2.20;;;2.10;;
21886;SDS011;11108;49.988;8.182;2023-01-23T06:12:22;1.57;;;1.57;;
21886;SDS011;11108;49.988;8.182;2023-01-23T06:14:47;1.57;;;1.50;;
21886;SDS011;11108;49.988;8.182;2023-01-23T06:17:12;1.80;;;1.70;;
21886;SDS011;11108;49.988;8.182;2023-01-23T06:19:38;1.77;;;1.67;;
21886;SDS011;11108;49.988;8.182;2023-01-23T06:22:03;1.73;;;1.63;;
21886;SDS011;11108;49.988;8.182;2023-01-23T06:24:28;1.40;;;1.40;;
21886;SDS011;11108;49.988;8.182;2023-01-23T06:26:54;1.97;;;1.87;;
21886;SDS011;11108;49.988;8.182;2023-01-23T06:29:19;1.70;;;1.60;;
21886;SDS011;11108;49.988;8.182;2023-01-23T06:31:44;1.60;;;1.60;;
21886;SDS011;11108;49.988;8.182;2023-01-23T06:34:11;1.50;;;1.40;;
21886;SDS011;11108;49.988;8.182;2023-01-23T06:36:36;1.90;;;1.80;;
21886;SDS011;11108;49.988;8.182;2023-01-23T06:39:02;1.57;;;1.50;;
21886;SDS011;11108;49.988;8.182;2023-01-23T06:41:27;1.67;;;1.57;;
21886;SDS011;11108;49.988;8.182;2023-01-23T06:43:52;1.73;;;1.70;;
21886;SDS011;11108;49.988;8.182;2023-01-23T06:46:18;1.50;;;1.50;;
21886;SDS011;11108;49.988;8.182;2023-01-23T06:48:44;1.73;;;1.63;;
21886;SDS011;11108;49.988;8.182;2023-01-23T06:51:09;1.87;;;1.77;;
21886;SDS011;11108;49.988;8.182;2023-01-23T06:53:34;1.80;;;1.70;;
21886;SDS011;11108;49.988;8.182;2023-01-23T06:56:00;1.50;;;1.40;;
21886;SDS011;11108;49.988;8.182;2023-01-23T06:58:25;1.83;;;1.73;;
21886;SDS011;11108;49.988;8.182;2023-01-23T07:00:51;1.70;;;1.60;;
21886;SDS011;11108;49.988;8.182;2023-01-23T07:03:16;1.63;;;1.53;;
21886;SDS011;11108;49.988;8.182;2023-01-23T07:05:42;2.40;;;1.50;;
21886;SDS011;11108;49.988;8.182;2023-01-23T07:08:07;1.90;;;1.80;;
21886;SDS011;11108;49.988;8.182;2023-01-23T07:10:33;1.70;;;1.60;;
21886;SDS011;11108;49.988;8.182;2023-01-23T07:12:58;1.20;;;1.20;;
21886;SDS011;11108;49.988;8.182;2023-01-23T07:15:23;1.60;;;1.50;;
21886;SDS011;11108;49.988;8.182;2023-01-23T07:17:48;2.27;;;1.53;;
21886;SDS011;11108;49.988;8.182;2023-01-23T07:20:14;2.83;;;1.50;;
21886;SDS011;11108;49.988;8.182;2023-01-23T07:22:39;1.70;;;1.60;;
21886;SDS011;11108;49.988;8.182;2023-01-23T07:25:05;1.50;;;1.40;;
21886;SDS011;11108;49.988;8.182;2023-01-23T07:27:30;1.23;;;1.23;;
21886;SDS011;11108;49.988;8.182;2023-01-23T07:29:57;1.60;;;1.50;;
21886;SDS011;11108;49.988;8.182;2023-01-23T07:32:22;1.43;;;1.43;;
21886;SDS011;11108;49.988;8.182;2023-01-23T07:34:47;2.00;;;1.20;;
21886;SDS011;11108;49.988;8.182;2023-01-23T07:37:12;1.43;;;1.43;;
21886;SDS011;11108;49.988;8.182;2023-01-23T07:39:37;1.80;;;1.50;;
21886;SDS011;11108;49.988;8.182;2023-01-23T07:42:03;1.33;;;1.30;;
21886;SDS011;11108;49.988;8.182;2023-01-23T07:44:28;1.40;;;1.40;;
21886;SDS011;11108;49.988;8.182;2023-01-23T07:46:53;1.50;;;1.40;;
21886;SDS011;11108;49.988;8.182;2023-01-23T07:49:18;1.27;;;1.27;;
21886;SDS011;11108;49.988;8.182;2023-01-23T07:51:44;1.63;;;1.53;;
21886;SDS011;11108;49.988;8.182;2023-01-23T07:54:09;1.30;;;1.20;;
21886;SDS011;11108;49.988;8.182;2023-01-23T07:56:34;1.43;;;1.30;;
21886;SDS011;11108;49.988;8.182;2023-01-23T07:58:59;1.50;;;1.40;;
21886;SDS011;11108;49.988;8.182;2023-01-23T08:01:25;1.30;;;1.30;;
21886;SDS011;11108;49.988;8.182;2023-01-23T08:03:51;1.60;;;1.50;;
21886;SDS011;11108;49.988;8.182;2023-01-23T08:06:16;1.30;;;1.30;;
21886;SDS011;11108;49.988;8.182;2023-01-23T08:08:41;1.60;;;1.50;;
21886;SDS011;11108;49.988;8.182;2023-01-23T08:11:07;1.70;;;1.60;;
21886;SDS011;11108;49.988;8.182;2023-01-23T08:13:34;1.43;;;1.43;;
21886;SDS011;11108;49.988;8.182;2023-01-23T08:15:59;1.20;;;1.17;;
21886;SDS011;11108;49.988;8.182;2023-01-23T08:18:24;1.63;;;1.53;;
21886;SDS011;11108;49.988;8.182;2023-01-23T08:20:53;1.90;;;1.67;;
21886;SDS011;11108;49.988;8.182;2023-01-23T08:23:19;1.40;;;1.30;;
21886;SDS011;11108;49.988;8.182;2023-01-23T08:25:44;1.70;;;1.60;;
21886;SDS011;11108;49.988;8.182;2023-01-23T08:28:09;1.57;;;1.57;;
21886;SDS011;11108;49.988;8.182;2023-01-23T08:30:34;1.33;;;1.30;;
21886;SDS011;11108;49.988;8.182;2023-01-23T08:32:59;1.80;;;1.70;;
21886;SDS011;11108;49.988;8.182;2023-01-23T08:35:25;3.50;;;1.97;;
21886;SDS011;11108;49.988;8.182;2023-01-23T08:37:50;1.60;;;1.50;;
21886;SDS011;11108;49.988;8.182;2023-01-23T08:40:15;2.67;;;1.63;;
21886;SDS011;11108;49.988;8.182;2023-01-23T08:42:40;2.27;;;1.63;;
21886;SDS011;11108;49.988;8.182;2023-01-23T08:45:06;1.47;;;1.37;;
21886;SDS011;11108;49.988;8.182;2023-01-23T08:47:31;2.80;;;1.60;;
21886;SDS011;11108;49.988;8.182;2023-01-23T08:50:00;1.43;;;1.33;;
21886;SDS011;11108;49.988;8.182;2023-01-23T08:52:25;1.40;;;1.30;;
21886;SDS011;11108;49.988;8.182;2023-01-23T08:54:50;2.90;;;2.00;;
21886;SDS011;11108;49.988;8.182;2023-01-23T08:57:15;3.03;;;2.13;;
21886;SDS011;11108;49.988;8.182;2023-01-23T08:59:41;1.70;;;1.60;;
21886;SDS011;11108;49.988;8.182;2023-01-23T09:02:09;1.60;;;1.23;;
21886;SDS011;11108;49.988;8.182;2023-01-23T09:04:35;2.40;;;1.60;;
21886;SDS011;11108;49.988;8.182;2023-01-23T09:07:00;1.47;;;1.37;;
21886;SDS011;11108;49.988;8.182;2023-01-23T09:09:27;1.47;;;1.37;;
21886;SDS011;11108;49.988;8.182;2023-01-23T09:11:52;1.53;;;1.43;;
21886;SDS011;11108;49.988;8.182;2023-01-23T09:14:18;1.90;;;1.40;;
21886;SDS011;11108;49.988;8.182;2023-01-23T09:16:43;2.57;;;1.80;;
21886;SDS011;11108;49.988;8.182;2023-01-23T09:19:08;1.40;;;1.40;;
21886;SDS011;11108;49.988;8.182;2023-01-23T09:21:35;1.30;;;1.30;;
21886;SDS011;11108;49.988;8.182;2023-01-23T09:24:01;1.67;;;1.57;;
21886;SDS011;11108;49.988;8.182;2023-01-23T09:26:26;1.30;;;1.30;;
21886;SDS011;11108;49.988;8.182;2023-01-23T09:28:51;1.53;;;1.30;;
21886;SDS011;11108;49.988;8.182;2023-01-23T09:31:16;1.40;;;1.30;;
21886;SDS011;11108;49.988;8.182;2023-01-23T09:33:42;1.33;;;1.23;;
21886;SDS011;11108;49.988;8.182;2023-01-23T09:36:07;1.33;;;1.33;;
21886;SDS011;11108;49.988;8.182;2023-01-23T09:38:32;1.67;;;1.57;;
21886;SDS011;11108;49.988;8.182;2023-01-23T09:40:58;1.70;;;1.60;;
21886;SDS011;11108;49.988;8.182;2023-01-23T09:43:31;1.70;;;1.60;;
21886;SDS011;11108;49.988;8.182;2023-01-23T09:45:59;1.27;;;1.27;;
21886;SDS011;11108;49.988;8.182;2023-01-23T09:48:30;1.23;;;1.17;;
21886;SDS011;11108;49.988;8.182;2023-01-23T09:50:59;2.43;;;1.70;;
21886;SDS011;11108;49.988;8.182;2023-01-23T09:53:26;1.80;;;1.70;;
21886;SDS011;11108;49.988;8.182;2023-01-23T09:55:56;1.87;;;1.30;;
21886;SDS011;11108;49.988;8.182;2023-01-23T09:58:24;1.60;;;1.50;;
21886;SDS011;11108;49.988;8.182;2023-01-23T10:00:51;2.47;;;1.67;;
21886;SDS011;11108;49.988;8.182;2023-01-23T10:03:17;1.37;;;1.27;;
21886;SDS011;11108;49.988;8.182;2023-01-23T10:05:45;1.60;;;1.50;;
21886;SDS011;11108;49.988;8.182;2023-01-23T10:10:43;1.20;;;1.20;;
21886;SDS011;11108;49.988;8.182;2023-01-23T10:13:23;1.43;;;1.33;;
21886;SDS011;11108;49.988;8.182;2023-01-23T10:18:35;1.50;;;1.40;;
21886;SDS011;11108;49.988;8.182;2023-01-23T10:21:10;2.73;;;1.50;;
21886;SDS011;11108;49.988;8.182;2023-01-23T10:23:42;1.47;;;1.37;;
21886;SDS011;11108;49.988;8.182;2023-01-23T10:26:23;2.00;;;1.83;;
21886;SDS011;11108;49.988;8.182;2023-01-23T10:28:50;1.90;;;1.73;;
21886;SDS011;11108;49.988;8.182;2023-01-23T10:31:37;1.90;;;1.80;;
21886;SDS011;11108;49.988;8.182;2023-01-23T10:34:05;1.73;;;1.67;;
21886;SDS011;11108;49.988;8.182;2023-01-23T10:39:26;1.47;;;1.37;;
21886;SDS011;11108;49.988;8.182;2023-01-23T10:41:53;3.43;;;1.60;;
21886;SDS011;11108;49.988;8.182;2023-01-23T10:44:18;1.40;;;1.40;;
21886;SDS011;11108;49.988;8.182;2023-01-23T10:46:45;1.57;;;1.47;;
21886;SDS011;11108;49.988;8.182;2023-01-23T10:49:11;1.50;;;1.43;;
21886;SDS011;11108;49.988;8.182;2023-01-23T10:51:50;1.40;;;1.30;;
21886;SDS011;11108;49.988;8.182;2023-01-23T10:54:17;1.93;;;1.83;;
21886;SDS011;11108;49.988;8.182;2023-01-23T10:56:46;1.90;;;1.80;;
21886;SDS011;11108;49.988;8.182;2023-01-23T10:59:20;1.47;;;1.37;;
21886;SDS011;11108;49.988;8.182;2023-01-23T11:01:53;1.90;;;1.80;;
21886;SDS011;11108;49.988;8.182;2023-01-23T11:04:20;1.50;;;1.40;;
21886;SDS011;11108;49.988;8.182;2023-01-23T11:07:00;1.60;;;1.50;;
21886;SDS011;11108;49.988;8.182;2023-01-23T11:09:26;1.77;;;1.67;;
21886;SDS011;11108;49.988;8.182;2023-01-23T11:12:02;1.70;;;1.60;;
21886;SDS011;11108;49.988;8.182;2023-01-23T11:14:27;1.80;;;1.70;;
21886;SDS011;11108;49.988;8.182;2023-01-23T11:17:03;1.87;;;1.60;;
21886;SDS011;11108;49.988;8.182;2023-01-23T11:19:29;1.67;;;1.57;;
21886;SDS011;11108;49.988;8.182;2023-01-23T11:21:59;1.43;;;1.37;;
21886;SDS011;11108;49.988;8.182;2023-01-23T11:24:32;2.07;;;1.63;;
21886;SDS011;11108;49.988;8.182;2023-01-23T11:27:20;1.60;;;1.50;;
21886;SDS011;11108;49.988;8.182;2023-01-23T11:32:12;1.90;;;1.80;;
21886;SDS011;11108;49.988;8.182;2023-01-23T11:34:48;2.57;;;1.93;;
21886;SDS011;11108;49.988;8.182;2023-01-23T11:42:23;2.27;;;2.07;;
21886;SDS011;11108;49.988;8.182;2023-01-23T11:44:49;3.83;;;1.97;;
21886;SDS011;11108;49.988;8.182;2023-01-23T11:49:56;2.92;;;2.33;;
21886;SDS011;11108;49.988;8.182;2023-01-23T11:52:29;2.97;;;2.23;;
21886;SDS011;11108;49.988;8.182;2023-01-23T11:55:07;4.13;;;2.60;;
21886;SDS011;11108;49.988;8.182;2023-01-23T12:00:04;3.00;;;2.60;;
21886;SDS011;11108;49.988;8.182;2023-01-23T12:02:40;5.40;;;2.60;;
21886;SDS011;11108;49.988;8.182;2023-01-23T12:05:23;6.43;;;3.00;;
21886;SDS011;11108;49.988;8.182;2023-01-23T12:08:00;5.60;;;3.27;;
21886;SDS011;11108;49.988;8.182;2023-01-23T12:16:05;4.17;;;3.20;;
21886;SDS011;11108;49.988;8.182;2023-01-23T12:21:11;4.13;;;2.80;;
21886;SDS011;11108;49.988;8.182;2023-01-23T12:31:15;3.70;;;3.00;;
21886;SDS011;11108;49.988;8.182;2023-01-23T12:46:34;4.57;;;2.90;;
21886;SDS011;11108;49.988;8.182;2023-01-23T12:51:31;3.40;;;2.60;;
21886;SDS011;11108;49.988;8.182;2023-01-23T12:53:58;3.93;;;2.63;;
21886;SDS011;11108;49.988;8.182;2023-01-23T12:56:32;3.20;;;2.90;;
21886;SDS011;11108;49.988;8.182;2023-01-23T13:01:35;5.27;;;3.20;;
21886;SDS011;11108;49.988;8.182;2023-01-23T13:12:11;3.30;;;2.63;;
21886;SDS011;11108;49.988;8.182;2023-01-23T13:14:43;3.47;;;2.40;;
21886;SDS011;11108;49.988;8.182;2023-01-23T13:17:33;4.47;;;2.60;;
21886;SDS011;11108;49.988;8.182;2023-01-23T13:21:00;4.23;;;2.70;;
21886;SDS011;11108;49.988;8.182;2023-01-23T13:23:31;2.60;;;2.40;;
21886;SDS011;11108;49.988;8.182;2023-01-23T13:28:47;2.87;;;2.60;;
21886;SDS011;11108;49.988;8.182;2023-01-23T13:33:48;4.90;;;2.60;;
21886;SDS011;11108;49.988;8.182;2023-01-23T13:36:21;5.27;;;2.63;;
21886;SDS011;11108;49.988;8.182;2023-01-23T13:39:04;4.07;;;2.50;;
21886;SDS011;11108;49.988;8.182;2023-01-23T13:41:30;5.97;;;3.27;;
21886;SDS011;11108;49.988;8.182;2023-01-23T13:52:13;3.70;;;2.43;;
21886;SDS011;11108;49.988;8.182;2023-01-23T13:54:58;6.00;;;2.47;;
21886;SDS011;11108;49.988;8.182;2023-01-23T13:57:43;2.87;;;2.40;;
21886;SDS011;11108;49.988;8.182;2023-01-23T14:00:18;3.63;;;2.50;;
21886;SDS011;11108;49.988;8.182;2023-01-23T14:02:49;4.53;;;2.30;;
21886;SDS011;11108;49.988;8.182;2023-01-23T14:05:35;2.30;;;2.10;;
21886;SDS011;11108;49.988;8.182;2023-01-23T14:08:01;2.57;;;2.37;;
21886;SDS011;11108;49.988;8.182;2023-01-23T14:10:30;3.90;;;2.33;;
21886;SDS011;11108;49.988;8.182;2023-01-23T14:15:27;3.93;;;1.80;;
21886;SDS011;11108;49.988;8.182;2023-01-23T14:18:26;3.73;;;2.30;;
21886;SDS011;11108;49.988;8.182;2023-01-23T14:20:53;5.97;;;2.70;;
21886;SDS011;11108;49.988;8.182;2023-01-23T14:23:22;3.63;;;2.50;;
21886;SDS011;11108;49.988;8.182;2023-01-23T14:25:49;4.87;;;2.73;;
21886;SDS011;11108;49.988;8.182;2023-01-23T14:28:15;5.30;;;2.70;;
21886;SDS011;11108;49.988;8.182;2023-01-23T14:30:46;4.77;;;2.50;;
21886;SDS011;11108;49.988;8.182;2023-01-23T14:33:16;2.70;;;2.20;;
21886;SDS011;11108;49.988;8.182;2023-01-23T14:35:41;4.60;;;2.23;;
21886;SDS011;11108;49.988;8.182;2023-01-23T14:38:07;3.13;;;2.47;;
21886;SDS011;11108;49.988;8.182;2023-01-23T14:40:32;7.70;;;3.03;;
21886;SDS011;11108;49.988;8.182;2023-01-23T14:45:23;4.37;;;2.17;;
21886;SDS011;11108;49.988;8.182;2023-01-23T14:47:48;2.40;;;2.20;;
21886;SDS011;11108;49.988;8.182;2023-01-23T14:50:15;2.83;;;2.50;;
21886;SDS011;11108;49.988;8.182;2023-01-23T14:52:41;3.93;;;2.30;;
21886;SDS011;11108;49.988;8.182;2023-01-23T14:55:20;3.60;;;2.07;;
21886;SDS011;11108;49.988;8.182;2023-01-23T14:57:45;3.37;;;2.30;;
21886;SDS011;11108;49.988;8.182;2023-01-23T15:00:12;2.20;;;2.10;;
21886;SDS011;11108;49.988;8.182;2023-01-23T15:02:38;2.73;;;2.30;;
21886;SDS011;11108;49.988;8.182;2023-01-23T15:05:08;2.40;;;2.30;;
21886;SDS011;11108;49.988;8.182;2023-01-23T15:07:34;4.60;;;2.33;;
21886;SDS011;11108;49.988;8.182;2023-01-23T15:10:11;4.07;;;2.63;;
21886;SDS011;11108;49.988;8.182;2023-01-23T15:12:36;2.20;;;2.00;;
21886;SDS011;11108;49.988;8.182;2023-01-23T15:15:02;4.77;;;2.23;;
21886;SDS011;11108;49.988;8.182;2023-01-23T15:17:28;2.60;;;2.40;;
21886;SDS011;11108;49.988;8.182;2023-01-23T15:19:53;2.77;;;2.57;;
21886;SDS011;11108;49.988;8.182;2023-01-23T15:22:22;4.73;;;2.20;;
21886;SDS011;11108;49.988;8.182;2023-01-23T15:24:48;2.93;;;2.00;;
21886;SDS011;11108;49.988;8.182;2023-01-23T15:29:48;3.67;;;2.20;;
21886;SDS011;11108;49.988;8.182;2023-01-23T15:32:24;2.43;;;2.23;;
21886;SDS011;11108;49.988;8.182;2023-01-23T15:34:53;5.10;;;2.30;;
21886;SDS011;11108;49.988;8.182;2023-01-23T15:37:23;2.90;;;2.10;;
21886;SDS011;11108;49.988;8.182;2023-01-23T15:39:50;3.03;;;2.17;;
21886;SDS011;11108;49.988;8.182;2023-01-23T15:44:41;2.40;;;2.20;;
21886;SDS011;11108;49.988;8.182;2023-01-23T15:47:07;2.00;;;1.90;;
21886;SDS011;11108;49.988;8.182;2023-01-23T15:49:33;2.50;;;2.30;;
21886;SDS011;11108;49.988;8.182;2023-01-23T15:52:14;2.33;;;2.13;;
21886;SDS011;11108;49.988;8.182;2023-01-23T15:54:40;2.47;;;2.13;;
21886;SDS011;11108;49.988;8.182;2023-01-23T15:57:06;2.03;;;1.93;;
21886;SDS011;11108;49.988;8.182;2023-01-23T15:59:34;2.37;;;2.20;;
21886;SDS011;11108;49.988;8.182;2023-01-23T16:02:00;2.23;;;2.03;;
21886;SDS011;11108;49.988;8.182;2023-01-23T16:04:25;2.33;;;2.13;;
21886;SDS011;11108;49.988;8.182;2023-01-23T16:06:50;4.33;;;2.53;;
21886;SDS011;11108;49.988;8.182;2023-01-23T16:09:26;4.50;;;2.43;;
21886;SDS011;11108;49.988;8.182;2023-01-23T16:11:54;2.23;;;2.13;;
21886;SDS011;11108;49.988;8.182;2023-01-23T16:14:19;2.20;;;2.03;;
21886;SDS011;11108;49.988;8.182;2023-01-23T16:16:44;2.73;;;2.50;;
21886;SDS011;11108;49.988;8.182;2023-01-23T16:19:09;1.90;;;1.80;;
21886;SDS011;11108;49.988;8.182;2023-01-23T16:21:35;2.20;;;2.00;;
21886;SDS011;11108;49.988;8.182;2023-01-23T16:27:03;2.47;;;2.03;;
21886;SDS011;11108;49.988;8.182;2023-01-23T16:29:29;2.53;;;2.10;;